Time;durP1;ratioP1;P1;durP2;ratioP2;P2;SDS_P1;SDS_P2;PMS_P1;PMS_P2;Temp;Humidity;BMP_temperature;BMP_pressure;BME280_temperature;BME280_humidity;BME280_pressure;Samples;Min_cycle;Max_cycle;Signal;HPM_P1;HPM_P2
2022/08/15 00:00:49;;;;;;;2.05;0.50;;;;;;;17.91;100.00;98544.44;7393735;19;20014;-78
2022/08/15 00:03:46;;;;;;;0.95;0.63;;;;;;;17.91;100.00;98550.06;7395742;19;20074;-77
2022/08/15 00:06:17;;;;;;;0.47;0.47;;;;;;;17.89;100.00;98551.94;7394524;19;20011;-77
2022/08/15 00:08:50;;;;;;;4.25;0.63;;;;;;;17.89;100.00;98552.69;7396002;19;20361;-77
2022/08/15 00:11:23;;;;;;;1.95;0.45;;;;;;;17.88;100.00;98553.25;7391957;19;20011;-77
2022/08/15 00:13:54;;;;;;;1.00;0.63;;;;;;;17.88;100.00;98551.22;7391756;19;20476;-77
2022/08/15 00:16:21;;;;;;;0.60;0.40;;;;;;;17.89;100.00;98552.69;7395854;19;20528;-77
2022/08/15 00:18:48;;;;;;;1.30;0.77;;;;;;;17.93;100.00;98547.44;7396779;19;20039;-77
2022/08/15 00:21:17;;;;;;;0.60;0.35;;;;;;;17.98;100.00;98542.97;7392831;19;20014;-77
2022/08/15 00:23:43;;;;;;;2.30;0.45;;;;;;;18.04;100.00;98538.66;7395425;19;20034;-77
2022/08/15 00:26:10;;;;;;;1.25;0.38;;;;;;;18.09;100.00;98537.75;7393978;19;20018;-77
2022/08/15 00:28:37;;;;;;;1.67;0.90;;;;;;;18.07;100.00;98531.94;7397125;19;20025;-79
2022/08/15 00:31:05;;;;;;;1.95;0.40;;;;;;;18.13;100.00;98537.38;7393465;19;20564;-79
2022/08/15 00:33:33;;;;;;;1.08;0.43;;;;;;;18.14;100.00;98530.44;7392974;19;20034;-78
2022/08/15 00:35:59;;;;;;;0.55;0.40;;;;;;;18.17;100.00;98530.06;7395089;19;20029;-78
2022/08/15 00:38:29;;;;;;;4.82;1.42;;;;;;;18.16;100.00;98522.94;7396935;19;20037;-78
2022/08/15 00:43:50;;;;;;;2.00;0.50;;;;;;;18.11;100.00;98529.50;7393043;19;20022;-78
2022/08/15 00:46:17;;;;;;;0.43;0.30;;;;;;;18.11;100.00;98534.38;7394182;19;20026;-78
2022/08/15 00:48:44;;;;;;;11.18;0.73;;;;;;;18.09;100.00;98532.13;7395381;19;20014;-78
2022/08/15 00:51:28;;;;;;;1.30;0.50;;;;;;;18.07;100.00;98533.97;7392871;19;20046;-78
2022/08/15 00:54:08;;;;;;;0.60;0.30;;;;;;;18.06;100.00;98527.59;7392065;19;20029;-78
2022/08/15 00:56:40;;;;;;;0.80;0.68;;;;;;;18.06;100.00;98527.59;7391390;19;20466;-78
2022/08/15 00:59:10;;;;;;;1.05;0.75;;;;;;;17.98;100.00;98523.25;7394736;19;20082;-78
2022/08/15 01:01:38;;;;;;;1.88;0.90;;;;;;;17.97;100.00;98521.75;7391368;19;20014;-78
2022/08/15 01:04:07;;;;;;;1.45;0.55;;;;;;;17.96;100.00;98523.81;7393143;19;20364;-78
2022/08/15 01:06:36;;;;;;;0.50;0.32;;;;;;;17.94;100.00;98520.81;7393745;19;20464;-78
2022/08/15 01:09:06;;;;;;;0.88;0.50;;;;;;;17.91;100.00;98521.91;7394851;19;20018;-78
2022/08/15 01:11:42;;;;;;;1.00;0.30;;;;;;;17.89;100.00;98507.63;7390081;19;20014;-78
2022/08/15 01:14:08;;;;;;;2.30;0.60;;;;;;;17.91;100.00;98510.63;7391957;19;20038;-78
2022/08/15 01:16:38;;;;;;;2.35;0.70;;;;;;;17.90;100.00;98509.16;7392631;19;20022;-78
2022/08/15 01:19:16;;;;;;;7.32;0.98;;;;;;;17.89;100.00;98510.44;7394597;19;20046;-78
2022/08/15 01:22:10;;;;;;;1.00;0.45;;;;;;;17.90;100.00;98503.53;7391209;19;20025;-79
2022/08/15 01:24:52;;;;;;;0.82;0.47;;;;;;;17.91;100.00;98499.38;7392174;19;20385;-78
2022/08/15 01:27:22;;;;;;;1.90;0.45;;;;;;;17.92;100.00;98500.13;7391697;19;20536;-78
2022/08/15 01:29:50;;;;;;;1.25;0.52;;;;;;;17.93;100.00;98502.38;7396303;19;20003;-78
2022/08/15 01:32:17;;;;;;;0.80;0.30;;;;;;;17.95;100.00;98494.13;7390376;19;20086;-78
2022/08/15 01:34:43;;;;;;;0.65;0.45;;;;;;;17.96;100.00;98495.66;7393948;19;20093;-78
2022/08/15 01:37:10;;;;;;;2.88;0.70;;;;;;;17.98;100.00;98498.66;7391099;19;20010;-78
2022/08/15 01:40:23;;;;;;;2.92;1.20;;;;;;;18.00;100.00;98490.38;7396397;19;20393;-78
2022/08/15 01:42:50;;;;;;;0.95;0.55;;;;;;;18.01;100.00;98496.78;7390039;19;20353;-78
2022/08/15 01:45:23;;;;;;;9.32;1.30;;;;;;;17.99;100.00;98488.91;7391389;19;20037;-78
2022/08/15 01:47:55;;;;;;;0.65;0.63;;;;;;;17.96;100.00;98494.88;7391674;19;20014;-78
2022/08/15 01:50:28;;;;;;;2.42;0.40;;;;;;;17.95;100.00;98496.94;7390945;19;20011;-78
2022/08/15 01:53:01;;;;;;;2.83;0.45;;;;;;;17.94;100.00;98487.00;7388553;19;20024;-78
2022/08/15 01:55:59;;;;;;;1.20;0.52;;;;;;;17.91;100.00;98484.56;7391241;19;20010;-78
2022/08/15 01:58:28;;;;;;;0.60;0.25;;;;;;;17.92;100.00;98491.69;7391576;19;20022;-78
2022/08/15 02:01:01;;;;;;;1.92;0.38;;;;;;;17.88;100.00;98483.59;7388138;19;20110;-78
2022/08/15 02:03:34;;;;;;;6.93;0.80;;;;;;;17.85;100.00;98478.31;7390571;19;20026;-78
2022/08/15 02:06:14;;;;;;;1.60;0.63;;;;;;;17.85;100.00;98479.09;7390708;19;20015;-79
2022/08/15 02:08:43;;;;;;;0.43;0.43;;;;;;;17.85;100.00;98481.91;7391794;19;20022;-78
2022/08/15 02:11:14;;;;;;;0.45;0.43;;;;;;;17.86;100.00;98480.59;7387658;19;20022;-79
2022/08/15 02:13:44;;;;;;;1.98;0.50;;;;;;;17.87;100.00;98473.63;7387808;19;20029;-78
2022/08/15 02:16:13;;;;;;;2.63;0.85;;;;;;;17.87;100.00;98465.19;7390741;19;20015;-77
2022/08/15 02:18:40;;;;;;;1.73;0.65;;;;;;;17.90;100.00;98460.50;7391795;19;20007;-77
2022/08/15 02:21:06;;;;;;;0.93;0.50;;;;;;;17.93;100.00;98467.84;7390220;19;20029;-78
2022/08/15 02:23:34;;;;;;;1.00;0.90;;;;;;;17.90;100.00;98458.44;7390388;19;20021;-78
2022/08/15 02:26:00;;;;;;;3.60;0.50;;;;;;;17.92;100.00;98460.69;7391162;19;20461;-78
2022/08/15 02:28:27;;;;;;;1.45;0.80;;;;;;;17.90;100.00;98458.44;7389875;19;20014;-78
2022/08/15 02:30:57;;;;;;;1.60;0.57;;;;;;;17.88;100.00;98454.69;7388057;19;20017;-78
2022/08/15 02:33:23;;;;;;;2.35;1.88;;;;;;;17.88;100.00;98451.88;7389278;19;20015;-78
2022/08/15 02:35:51;;;;;;;1.23;0.55;;;;;;;17.85;100.00;98462.19;7393692;19;20029;-78
2022/08/15 02:38:18;;;;;;;0.73;0.28;;;;;;;17.88;100.00;98452.63;7391344;19;20010;-78
2022/08/15 02:40:45;;;;;;;0.35;0.35;;;;;;;17.91;100.00;98457.13;7388798;19;20038;-78
2022/08/15 02:43:13;;;;;;;1.70;0.85;;;;;;;17.91;100.00;98448.66;7391121;19;20011;-78
2022/08/15 02:45:47;;;;;;;2.42;0.55;;;;;;;17.93;100.00;98446.03;7387983;19;20468;-78
2022/08/15 02:48:15;;;;;;;0.70;0.40;;;;;;;17.92;100.00;98452.25;7390230;19;20010;-78
2022/08/15 02:50:42;;;;;;;0.88;0.22;;;;;;;17.95;100.00;98457.50;7388493;19;20334;-78
2022/08/15 02:53:16;;;;;;;1.95;0.52;;;;;;;17.95;100.00;98457.50;7388198;19;20500;-78
2022/08/15 02:55:45;;;;;;;3.58;0.82;;;;;;;18.00;100.00;98450.94;7390399;19;20110;-78
2022/08/15 02:58:12;;;;;;;1.05;0.20;;;;;;;18.03;100.00;98457.53;7390538;19;20326;-78
2022/08/15 03:00:41;;;;;;;2.60;0.63;;;;;;;18.03;100.00;98452.66;7388488;19;20018;-79
2022/08/15 03:03:14;;;;;;;2.13;0.65;;;;;;;18.05;100.00;98452.84;7388661;19;20358;-77
2022/08/15 03:05:47;;;;;;;3.78;0.75;;;;;;;18.06;100.00;98459.97;7399864;19;20014;-77
2022/08/15 03:08:13;;;;;;;0.68;0.35;;;;;;;18.08;100.00;98457.34;7396283;19;20120;-77
2022/08/15 03:10:41;;;;;;;2.28;0.75;;;;;;;18.08;100.00;98451.72;7394452;19;20018;-77
2022/08/15 03:13:15;;;;;;;2.55;0.63;;;;;;;18.09;100.00;98453.22;7394073;19;20397;-77
2022/08/15 03:15:52;;;;;;;2.15;0.60;;;;;;;18.10;100.00;98443.44;7396365;19;20018;-77
2022/08/15 03:18:21;;;;;;;2.72;0.40;;;;;;;18.12;100.00;98440.84;7397298;19;20491;-77
2022/08/15 03:20:51;;;;;;;2.17;0.60;;;;;;;18.13;100.00;98436.69;7393892;19;20074;-77
2022/08/15 03:23:19;;;;;;;2.72;0.52;;;;;;;18.16;100.00;98441.22;7396195;19;20010;-78
2022/08/15 03:25:49;;;;;;;2.25;0.95;;;;;;;18.18;100.00;98441.41;7395698;19;20014;-78
2022/08/15 03:28:23;;;;;;;0.75;0.60;;;;;;;18.19;100.00;98439.34;7396693;19;20025;-78
2022/08/15 03:30:50;;;;;;;1.48;0.43;;;;;;;18.23;100.00;98430.50;7392974;19;20093;-77
2022/08/15 03:33:17;;;;;;;0.88;0.57;;;;;;;18.25;100.00;98419.44;7395623;19;20010;-78
2022/08/15 03:35:49;;;;;;;1.40;0.40;;;;;;;18.25;100.00;98431.47;7398959;19;20018;-78
2022/08/15 03:38:19;;;;;;;0.68;0.20;;;;;;;18.26;100.00;98423.75;7397594;19;20018;-77
2022/08/15 03:40:48;;;;;;;1.73;0.63;;;;;;;18.26;100.00;98426.56;7394192;19;20032;-78
2022/08/15 03:43:28;;;;;;;1.25;1.05;;;;;;;18.26;100.00;98420.94;7394902;19;20014;-77
2022/08/15 03:45:59;;;;;;;0.70;0.40;;;;;;;18.27;100.00;98411.16;7395105;19;20466;-78
2022/08/15 03:48:31;;;;;;;1.08;0.60;;;;;;;18.29;100.00;98414.16;7396449;19;20021;-78
2022/08/15 03:51:01;;;;;;;2.38;0.65;;;;;;;18.29;100.00;98409.28;7393575;19;20017;-78
2022/08/15 03:53:38;;;;;;;0.63;0.63;;;;;;;18.31;100.00;98422.81;7392413;19;20094;-76
2022/08/15 03:56:06;;;;;;;0.68;0.30;;;;;;;18.33;100.00;98409.66;7394521;19;20026;-77
2022/08/15 03:58:35;;;;;;;2.15;0.60;;;;;;;18.31;100.00;98400.25;7394997;19;20014;-77
2022/08/15 04:01:10;;;;;;;3.47;0.63;;;;;;;18.32;100.00;98396.88;7392368;19;20014;-77
2022/08/15 04:03:37;;;;;;;1.52;0.63;;;;;;;18.31;100.00;98405.91;7394458;19;20042;-77
2022/08/15 04:06:07;;;;;;;1.50;0.45;;;;;;;18.30;100.00;98395.94;7393620;19;20018;-77
2022/08/15 04:08:35;;;;;;;0.30;0.30;;;;;;;18.30;100.00;98399.50;7394735;19;20367;-77
2022/08/15 04:11:04;;;;;;;0.85;0.60;;;;;;;18.30;100.00;98401.59;7392865;19;20018;-77
2022/08/15 04:13:32;;;;;;;2.23;0.70;;;;;;;18.28;100.00;98395.75;7392284;19;20375;-76
2022/08/15 04:16:01;;;;;;;0.60;0.17;;;;;;;18.27;100.00;98392.19;7392152;19;20021;-77
2022/08/15 04:18:28;;;;;;;4.03;0.98;;;;;;;18.27;100.00;98389.38;7396636;19;20044;-77
2022/08/15 04:20:57;;;;;;;3.35;0.63;;;;;;;18.26;100.00;98398.41;7391918;19;20014;-77
2022/08/15 04:23:23;;;;;;;1.05;0.70;;;;;;;18.25;100.00;98385.59;7393409;19;20010;-77
2022/08/15 04:25:50;;;;;;;0.65;0.30;;;;;;;18.25;100.00;98385.59;7393075;19;20015;-77
2022/08/15 04:28:19;;;;;;;2.20;1.05;;;;;;;18.27;100.00;98389.38;7393880;19;20497;-77
2022/08/15 04:30:48;;;;;;;6.63;0.95;;;;;;;18.30;100.00;98398.78;7391493;19;20015;-77
2022/08/15 04:33:19;;;;;;;0.50;0.40;;;;;;;18.27;100.00;98394.25;7391620;19;20046;-77
2022/08/15 04:35:54;;;;;;;2.08;0.57;;;;;;;18.26;100.00;98392.75;7397306;19;20014;-77
2022/08/15 04:38:22;;;;;;;1.52;0.90;;;;;;;18.28;100.00;98395.75;7395946;19;20011;-77
2022/08/15 04:40:50;;;;;;;1.95;0.43;;;;;;;18.28;100.00;98381.69;7392077;19;20011;-77
2022/08/15 04:43:19;;;;;;;0.73;0.65;;;;;;;18.28;100.00;98384.50;7394980;19;20022;-77
2022/08/15 04:45:45;;;;;;;1.02;0.70;;;;;;;18.25;100.00;98379.97;7391422;19;20460;-77
2022/08/15 04:48:14;;;;;;;1.40;0.75;;;;;;;18.26;100.00;98381.50;7393380;19;20018;-77
2022/08/15 04:50:44;;;;;;;1.02;0.22;;;;;;;18.25;100.00;98382.78;7391393;19;20383;-77
2022/08/15 04:53:13;;;;;;;1.40;0.90;;;;;;;18.26;100.00;98384.31;7392025;19;20019;-77
2022/08/15 04:55:43;;;;;;;2.58;0.75;;;;;;;18.27;100.00;98377.34;7392221;19;20411;-77
2022/08/15 04:58:12;;;;;;;0.45;0.45;;;;;;;18.26;100.00;98376.56;7393736;19;20022;-77
2022/08/15 05:00:54;;;;;;;1.50;0.77;;;;;;;18.25;100.00;98388.44;7390845;19;20487;-79
2022/08/15 05:03:34;;;;;;;1.48;0.70;;;;;;;18.22;100.00;98398.75;7392683;19;20476;-79
2022/08/15 05:06:04;;;;;;;3.15;0.60;;;;;;;18.20;100.00;98421.13;7393315;19;20019;-79
2022/08/15 05:08:34;;;;;;;0.93;0.77;;;;;;;18.18;100.00;98427.31;7392308;19;20381;-79
2022/08/15 05:11:10;;;;;;;1.90;0.80;;;;;;;18.20;100.00;98418.28;7391556;19;20041;-79
2022/08/15 05:13:39;;;;;;;0.88;0.45;;;;;;;18.20;100.00;98412.66;7389034;19;20011;-79
2022/08/15 05:16:08;;;;;;;1.52;0.68;;;;;;;18.18;100.00;98418.09;7392012;19;20061;-78
2022/08/15 05:18:41;;;;;;;2.72;0.80;;;;;;;18.15;100.00;98417.16;7393496;19;20014;-78
2022/08/15 05:21:10;;;;;;;1.33;0.47;;;;;;;18.11;100.00;98418.84;7391054;19;20015;-78
2022/08/15 05:23:39;;;;;;;1.55;0.28;;;;;;;18.05;100.00;98413.41;7391916;19;20018;-78
2022/08/15 05:26:06;;;;;;;0.47;0.47;;;;;;;18.01;100.00;98424.28;7390473;19;20011;-78
2022/08/15 05:28:36;;;;;;;4.28;1.48;;;;;;;17.95;100.00;98432.16;7392603;19;20545;-78
2022/08/15 05:31:08;;;;;;;2.63;0.80;;;;;;;17.91;100.00;98425.41;7389795;19;20014;-78
2022/08/15 05:33:36;;;;;;;1.55;0.82;;;;;;;17.85;100.00;98434.03;7390965;19;20014;-78
2022/08/15 05:36:05;;;;;;;2.38;0.80;;;;;;;17.79;100.00;98435.50;7394247;19;20018;-78
2022/08/15 05:38:58;;;;;;;2.15;0.77;;;;;;;17.76;100.00;98447.91;7392193;19;20499;-77
2022/08/15 05:41:32;;;;;;;1.88;0.75;;;;;;;17.74;100.00;98453.31;7391133;19;20106;-78
2022/08/15 05:44:20;;;;;;;8.57;0.98;;;;;;;17.75;100.00;98454.84;7392748;19;20046;-78
2022/08/15 05:46:49;;;;;;;3.15;0.85;;;;;;;17.76;100.00;98443.00;7393419;19;20016;-78
2022/08/15 05:49:29;;;;;;;3.60;1.20;;;;;;;17.74;100.00;98456.91;7392496;19;20399;-78
2022/08/15 05:52:39;;;;;;;5.45;0.85;;;;;;;17.77;100.00;98455.78;7391048;19;20011;-77
2022/08/15 05:55:19;;;;;;;1.85;0.55;;;;;;;17.78;100.00;98451.66;7394429;19;20022;-78
2022/08/15 05:58:14;;;;;;;4.82;1.00;;;;;;;17.77;100.00;98450.16;7393642;19;20018;-78
2022/08/15 06:00:52;;;;;;;2.00;0.70;;;;;;;17.77;100.00;98461.41;7392000;19;20018;-77
2022/08/15 06:03:24;;;;;;;1.23;0.77;;;;;;;17.75;100.00;98447.16;7393746;19;20017;-77
2022/08/15 06:05:56;;;;;;;1.13;0.68;;;;;;;17.75;100.00;98464.03;7393917;19;20085;-77
2022/08/15 06:08:33;;;;;;;2.00;1.00;;;;;;;17.79;100.00;98464.44;7390522;19;20584;-77
2022/08/15 06:11:08;;;;;;;6.15;0.90;;;;;;;17.85;100.00;98465.00;7389917;19;20433;-77
2022/08/15 06:13:43;;;;;;;2.53;1.00;;;;;;;17.88;100.00;98455.44;7388803;19;20036;-77
2022/08/15 06:16:23;;;;;;;1.80;0.80;;;;;;;17.95;100.00;98454.69;7391021;19;20006;-77
2022/08/15 06:18:50;;;;;;;4.73;2.23;;;;;;;18.03;100.00;98449.84;7389795;19;20486;-77
2022/08/15 06:21:51;;;;;;;6.90;1.23;;;;;;;18.10;100.00;98449.06;7389063;19;20312;-77
2022/08/15 06:24:42;;;;;;;1.65;1.27;;;;;;;18.16;100.00;98451.72;7388996;19;20472;-77
2022/08/15 06:27:27;;;;;;;2.45;1.35;;;;;;;18.21;100.00;98458.50;7391537;19;20464;-77
2022/08/15 06:30:06;;;;;;;4.30;1.23;;;;;;;18.27;100.00;98445.75;7391478;19;20034;-77
2022/08/15 06:32:40;;;;;;;6.82;1.58;;;;;;;18.39;100.00;98451.75;7390728;19;20373;-77
2022/08/15 06:35:19;;;;;;;7.18;2.45;;;;;;;18.53;100.00;98451.03;7391092;19;20015;-77
2022/08/15 06:38:19;;;;;;;6.35;2.50;;;;;;;18.69;100.00;98457.44;7391433;19;20007;-77
2022/08/15 06:40:50;;;;;;;8.87;2.43;;;;;;;18.89;100.00;98450.81;7397132;19;20011;-77
2022/08/15 06:43:17;;;;;;;7.53;2.75;;;;;;;19.02;100.00;98456.22;7399214;19;20015;-76
2022/08/15 06:46:13;;;;;;;6.57;2.67;;;;;;;19.19;100.00;98458.47;7398721;19;20011;-77
2022/08/15 06:48:41;;;;;;;5.85;2.33;;;;;;;19.33;100.00;98468.97;7398466;19;20476;-77
2022/08/15 06:51:11;;;;;;;5.57;2.45;;;;;;;19.49;100.00;98467.59;7398023;19;20014;-77
2022/08/15 06:53:55;;;;;;;7.65;2.55;;;;;;;19.69;100.00;98463.00;7396657;19;20643;-78
2022/08/15 06:56:33;;;;;;;4.73;2.50;;;;;;;19.94;100.00;98465.91;7397924;19;20011;-77
2022/08/15 06:59:05;;;;;;;14.32;3.70;;;;;;;20.16;100.00;98457.25;7398130;19;20010;-78
2022/08/15 07:02:00;;;;;;;20.13;3.45;;;;;;;20.37;100.00;98462.63;7396581;19;20021;-77
2022/08/15 07:04:37;;;;;;;6.55;1.70;;;;;;;20.53;100.00;98461.16;7397767;19;20372;-77
2022/08/15 07:07:44;;;;;;;5.10;2.08;;;;;;;20.66;100.00;98463.69;7396320;19;20070;-77
2022/08/15 07:10:27;;;;;;;3.28;2.10;;;;;;;20.80;100.00;98469.81;7394460;19;20018;-77
2022/08/15 07:13:05;;;;;;;6.93;2.45;;;;;;;20.91;100.00;98472.16;7394193;19;20171;-78
2022/08/15 07:15:46;;;;;;;6.35;1.88;;;;;;;21.02;100.00;98460.34;7394731;19;20013;-78
2022/08/15 07:18:22;;;;;;;8.10;2.65;;;;;;;21.18;100.00;98466.66;7396053;19;20038;-78
2022/08/15 07:20:49;;;;;;;5.20;2.22;;;;;;;21.24;100.00;98461.47;7394635;19;20018;-77
2022/08/15 07:23:23;;;;;;;9.95;2.63;;;;;;;21.35;100.00;98464.56;7394399;19;20037;-78
2022/08/15 07:25:52;;;;;;;8.30;2.05;;;;;;;21.37;100.00;98467.56;7394279;19;20078;-77
2022/08/15 07:28:25;;;;;;;3.00;1.55;;;;;;;21.40;100.00;98471.28;7396416;19;20049;-78
2022/08/15 07:31:04;;;;;;;7.00;2.35;;;;;;;21.49;100.00;98473.47;7392962;19;20017;-78
2022/08/15 07:33:46;;;;;;;3.70;2.35;;;;;;;21.49;100.00;98471.38;7391556;19;20006;-78
2022/08/15 07:36:34;;;;;;;4.28;1.50;;;;;;;21.50;100.00;98472.91;7394358;19;20007;-78
2022/08/15 07:39:34;;;;;;;20.73;2.15;;;;;;;21.53;100.00;98476.63;7399275;19;20021;-78
2022/08/15 07:42:18;;;;;;;4.97;1.75;;;;;;;21.55;100.00;98473.97;7394329;19;20025;-78
2022/08/15 07:44:53;;;;;;;6.15;0.55;;;;;;;21.58;100.00;98479.22;7394798;19;20483;-78
2022/08/15 07:47:24;;;;;;;6.28;1.65;;;;;;;21.63;100.00;98478.22;7395596;19;20025;-78
2022/08/15 07:50:12;;;;;;;4.82;1.45;;;;;;;21.76;100.00;98485.59;7397419;19;20025;-78
2022/08/15 07:52:39;;;;;;;2.60;1.25;;;;;;;21.85;100.00;98488.53;7391969;19;20074;-79
2022/08/15 07:55:20;;;;;;;6.70;0.90;;;;;;;21.91;100.00;98490.34;7392984;19;20428;-78
2022/08/15 07:58:02;;;;;;;7.80;1.40;;;;;;;21.99;100.00;98491.75;7394347;19;20342;-78
2022/08/15 08:00:34;;;;;;;3.63;1.83;;;;;;;22.08;100.00;98493.91;7394990;19;20293;-79
2022/08/15 08:03:13;;;;;;;3.15;0.95;;;;;;;22.13;100.00;98501.41;7394351;19;20019;-78
2022/08/15 08:05:56;;;;;;;2.78;1.45;;;;;;;22.20;100.00;98497.69;7398295;19;20439;-78
2022/08/15 08:08:35;;;;;;;5.78;1.70;;;;;;;22.30;100.00;98504.19;7393571;19;20082;-78
2022/08/15 08:11:12;;;;;;;4.10;1.63;;;;;;;22.41;100.00;98503.66;7392410;19;20018;-79
2022/08/15 08:13:55;;;;;;;2.70;0.85;;;;;;;22.51;100.00;98507.25;7392272;19;20015;-78
2022/08/15 08:17:02;;;;;;;2.15;1.33;;;;;;;22.60;100.00;98511.50;7393649;19;20014;-78
2022/08/15 08:19:51;;;;;;;2.67;1.50;;;;;;;22.67;100.00;98507.06;7398070;19;20297;-78
2022/08/15 08:22:28;;;;;;;5.50;1.88;;;;;;;22.75;100.00;98513.34;7394277;19;20027;-78
2022/08/15 08:25:06;;;;;;;8.55;2.58;;;;;;;22.84;100.00;98512.63;7394375;19;20018;-78
2022/08/15 08:27:43;;;;;;;1.65;1.40;;;;;;;22.94;100.00;98521.94;7392705;19;20010;-78
2022/08/15 08:30:13;;;;;;;2.35;0.85;;;;;;;22.99;100.00;98518.06;7392923;19;20021;-78
2022/08/15 08:33:11;;;;;;;4.28;1.45;;;;;;;23.04;100.00;98528.41;7393243;19;20022;-78
2022/08/15 08:35:54;;;;;;;2.90;1.45;;;;;;;23.06;100.00;98514.34;7394822;19;20011;-78
2022/08/15 08:38:23;;;;;;;2.72;0.82;;;;;;;23.06;100.00;98514.34;7397746;19;20082;-78
2022/08/15 08:41:24;;;;;;;5.03;1.35;;;;;;;22.97;100.00;98510.16;7393402;19;20014;-77
2022/08/15 08:44:10;;;;;;;2.72;0.90;;;;;;;22.95;100.00;98526.28;7394754;19;20357;-78
2022/08/15 08:47:01;;;;;;;2.65;0.88;;;;;;;22.92;100.00;98516.09;7393512;19;20022;-78
2022/08/15 08:50:08;;;;;;;2.63;1.13;;;;;;;22.95;100.00;98514.91;7396588;19;20350;-78
2022/08/15 08:53:23;;;;;;;4.68;0.90;;;;;;;23.08;100.00;98508.81;7393443;19;20365;-79
2022/08/15 08:55:57;;;;;;;10.23;1.48;;;;;;;23.22;100.00;98512.72;7389660;19;20022;-78
2022/08/15 08:58:30;;;;;;;2.97;1.00;;;;;;;23.46;100.00;98508.91;7390353;19;20006;-78
2022/08/15 09:00:58;;;;;;;3.92;1.27;;;;;;;23.70;100.00;98501.41;7386597;19;20022;-78
2022/08/15 09:03:31;;;;;;;2.00;0.60;;;;;;;23.86;100.00;98500.53;7388888;19;20074;-78
2022/08/15 09:05:59;;;;;;;5.22;0.80;;;;;;;23.99;100.00;98494.38;7391792;19;20362;-78
2022/08/15 09:08:40;;;;;;;2.15;0.70;;;;;;;24.18;100.00;98501.38;7393497;19;20022;-79
2022/08/15 09:11:19;;;;;;;11.35;1.85;;;;;;;24.32;100.00;98508.09;7392172;19;20374;-78
2022/08/15 09:13:48;;;;;;;10.18;0.45;;;;;;;24.45;100.00;98505.47;7391987;19;20349;-77
2022/08/15 09:16:19;;;;;;;6.22;1.15;;;;;;;24.50;100.00;98503.66;7393027;19;20031;-78
2022/08/15 09:18:54;;;;;;;5.25;0.93;;;;;;;24.56;100.00;98506.97;7393507;19;20533;-78
2022/08/15 09:21:20;;;;;;;4.93;0.88;;;;;;;24.73;100.00;98506.75;7391513;19;20379;-77
2022/08/15 09:23:47;;;;;;;3.10;1.13;;;;;;;24.91;100.00;98510.84;7391856;19;20021;-77
2022/08/15 09:26:21;;;;;;;4.78;1.17;;;;;;;25.12;100.00;98508.03;7393346;19;20443;-78
2022/08/15 09:29:28;;;;;;;1.70;0.57;;;;;;;25.21;100.00;98503.66;7393525;19;20396;-77
2022/08/15 09:32:21;;;;;;;2.65;0.65;;;;;;;25.47;100.00;98514.72;7389887;19;20023;-77
2022/08/15 09:35:02;;;;;;;1.48;0.25;;;;;;;25.76;100.00;98516.59;7395807;19;20407;-78
2022/08/15 09:37:33;;;;;;;3.45;0.52;;;;;;;26.01;100.00;98514.00;7391692;19;20018;-77
2022/08/15 09:39:59;;;;;;;2.45;0.60;;;;;;;26.27;100.00;98515.69;7396708;19;20014;-78
2022/08/15 09:42:43;;;;;;;5.40;1.52;;;;;;;26.52;100.00;98515.88;7392301;19;20373;-78
2022/08/15 09:45:32;;;;;;;0.98;0.52;;;;;;;26.85;100.00;98516.53;7393231;19;20023;-78
2022/08/15 09:48:15;;;;;;;1.63;0.47;;;;;;;27.02;100.00;98521.13;7390152;19;20367;-77
2022/08/15 09:51:14;;;;;;;1.48;0.40;;;;;;;27.27;100.00;98517.59;7391598;19;20485;-77
2022/08/15 09:54:02;;;;;;;3.22;0.30;;;;;;;27.18;100.00;98522.09;7390001;19;20029;-77
2022/08/15 09:56:31;;;;;;;1.00;0.40;;;;;;;27.05;100.00;98526.31;7390386;19;20015;-77
2022/08/15 09:59:06;;;;;;;0.60;0.28;;;;;;;26.89;100.00;98531.06;7394994;19;20545;-78
2022/08/15 10:01:58;;;;;;;3.67;0.50;;;;;;;26.88;100.00;98541.00;7389114;19;20018;-77
2022/08/15 10:04:49;;;;;;;7.13;0.73;;;;;;;26.72;100.00;98531.41;7392116;19;20039;-78
2022/08/15 10:07:15;;;;;;;1.35;0.25;;;;;;;26.68;100.00;98539.72;7390403;19;20018;-78
2022/08/15 10:10:00;;;;;;;1.00;0.20;;;;;;;26.60;100.00;98539.22;7393182;19;20018;-77
2022/08/15 10:12:27;;;;;;;1.10;0.35;;;;;;;26.47;100.00;98539.81;7388608;19;20013;-77
2022/08/15 10:15:03;;;;;;;6.25;0.70;;;;;;;26.27;100.00;98539.25;7390414;19;20014;-77
2022/08/15 10:17:33;;;;;;;2.33;0.77;;;;;;;26.00;100.00;98536.06;7391569;19;20017;-78
2022/08/15 10:20:14;;;;;;;1.80;0.63;;;;;;;25.75;100.00;98540.78;7395453;19;20026;-77
2022/08/15 10:22:43;;;;;;;4.10;0.40;;;;;;;25.55;100.00;98532.38;7388443;19;20038;-78
2022/08/15 10:25:22;;;;;;;2.33;0.68;;;;;;;25.45;100.00;98531.69;7388185;19;20018;-78
2022/08/15 10:28:23;;;;;;;1.45;0.30;;;;;;;25.33;100.00;98528.03;7391194;19;20366;-78
2022/08/15 10:31:16;;;;;;;1.58;0.70;;;;;;;25.26;100.00;98523.25;7387791;19;20022;-78
2022/08/15 10:33:48;;;;;;;2.53;0.63;;;;;;;25.19;100.00;98524.19;7390041;19;20011;-78
2022/08/15 10:36:14;;;;;;;1.15;0.57;;;;;;;25.14;100.00;98522.44;7388684;19;20029;-77
2022/08/15 10:38:45;;;;;;;4.07;0.85;;;;;;;25.04;100.00;98518.88;7392623;19;20365;-77
2022/08/15 10:41:37;;;;;;;6.25;0.35;;;;;;;24.95;100.00;98521.81;7390759;19;20019;-77
2022/08/15 10:44:35;;;;;;;2.03;0.68;;;;;;;24.87;100.00;98530.53;7387481;19;20018;-77
2022/08/15 10:47:22;;;;;;;3.22;0.47;;;;;;;24.84;100.00;98528.88;7390288;19;20022;-78
2022/08/15 10:50:16;;;;;;;5.13;0.70;;;;;;;24.78;100.00;98522.75;7393819;19;20023;-77
2022/08/15 10:53:07;;;;;;;1.52;0.35;;;;;;;24.79;100.00;98527.88;7389396;19;20700;-78
2022/08/15 10:55:36;;;;;;;5.47;0.65;;;;;;;24.75;100.00;98529.69;7390994;19;20022;-78
2022/08/15 10:58:13;;;;;;;1.63;0.35;;;;;;;24.72;100.00;98533.72;7389198;19;20003;-78
2022/08/15 11:01:06;;;;;;;5.88;0.70;;;;;;;24.64;100.00;98521.75;7386783;19;20021;-78
2022/08/15 11:03:50;;;;;;;2.75;0.57;;;;;;;24.54;100.00;98529.56;7388300;19;20086;-78
2022/08/15 11:06:21;;;;;;;2.28;0.52;;;;;;;24.46;100.00;98529.00;7389560;19;20087;-78
2022/08/15 11:08:58;;;;;;;1.02;0.30;;;;;;;24.41;100.00;98530.06;7391724;19;20366;-78
2022/08/15 11:11:26;;;;;;;1.45;0.17;;;;;;;24.38;100.00;98531.28;7387409;19;20056;-78
2022/08/15 11:13:56;;;;;;;2.05;0.22;;;;;;;24.28;100.00;98530.56;7388817;19;20029;-78
2022/08/15 11:16:35;;;;;;;0.75;0.45;;;;;;;24.24;100.00;98536.69;7388380;19;20022;-78
2022/08/15 11:19:15;;;;;;;2.65;0.60;;;;;;;24.16;100.00;98538.22;7391377;19;20018;-78
2022/08/15 11:21:49;;;;;;;1.97;0.40;;;;;;;24.04;100.00;98547.38;7386026;19;20353;-78
2022/08/15 11:24:30;;;;;;;0.68;0.20;;;;;;;23.91;100.00;98556.31;7388550;19;20353;-78
2022/08/15 11:27:17;;;;;;;1.15;0.30;;;;;;;23.81;100.00;98552.00;7397452;19;20015;-78
2022/08/15 11:29:45;;;;;;;0.38;0.15;;;;;;;23.71;100.00;98559.78;7400983;19;20334;-80
2022/08/15 11:32:22;;;;;;;5.50;0.28;;;;;;;23.67;100.00;98565.16;7393892;19;20040;-79
2022/08/15 11:34:51;;;;;;;1.13;0.10;;;;;;;23.61;100.00;98561.84;7397661;19;20039;-79
2022/08/15 11:37:24;;;;;;;0.88;0.30;;;;;;;23.54;100.00;98560.66;7395083;19;20010;-77
2022/08/15 11:39:58;;;;;;;1.70;0.70;;;;;;;23.43;100.00;98564.09;7397173;19;20022;-77
2022/08/15 11:42:32;;;;;;;1.08;0.50;;;;;;;23.44;100.00;98568.41;7396249;19;20022;-79
2022/08/15 11:45:09;;;;;;;2.20;0.40;;;;;;;23.45;100.00;98572.03;7395760;19;20018;-77
2022/08/15 11:47:43;;;;;;;2.10;0.50;;;;;;;23.53;100.00;98564.84;7394089;19;20042;-78
2022/08/15 11:50:42;;;;;;;2.10;0.68;;;;;;;23.78;100.00;98582.38;7393834;19;20018;-79
2022/08/15 11:53:10;;;;;;;6.20;0.60;;;;;;;24.00;100.00;98569.78;7394873;19;20014;-76
2022/08/15 11:55:37;;;;;;;1.65;0.40;;;;;;;24.20;100.00;98576.25;7394421;19;20361;-77
2022/08/15 11:58:10;;;;;;;2.05;0.10;;;;;;;24.36;100.00;98579.53;7395676;19;20549;-78
2022/08/15 12:00:45;;;;;;;1.25;0.25;;;;;;;24.42;100.00;98575.00;7392590;19;20014;-79
2022/08/15 12:03:23;;;;;;;1.17;0.30;;;;;;;24.48;100.00;98588.91;7394154;19;20006;-80
2022/08/15 12:05:55;;;;;;;4.65;0.90;;;;;;;24.47;100.00;98581.75;7401122;19;20340;-85